createdAt,value
2022-12-25T00:01:51.171Z,9.47
2022-12-25T00:04:24.708Z,7.00
2022-12-25T00:06:59.873Z,6.73
2022-12-25T00:09:34.158Z,6.83
2022-12-25T00:12:08.014Z,10.87
2022-12-25T00:14:41.706Z,5.67
2022-12-25T00:17:15.307Z,6.00
2022-12-25T00:19:48.728Z,6.03
2022-12-25T00:22:23.732Z,5.87
2022-12-25T00:24:57.432Z,7.13
2022-12-25T00:27:33.930Z,8.07
2022-12-25T00:30:09.108Z,7.87
2022-12-25T00:32:42.560Z,5.40
2022-12-25T00:35:16.373Z,6.10
2022-12-25T00:37:51.472Z,5.23
2022-12-25T00:40:24.987Z,6.93
2022-12-25T00:42:57.479Z,6.07
2022-12-25T00:45:31.017Z,5.97
2022-12-25T00:48:05.027Z,6.37
2022-12-25T00:50:40.037Z,6.03
2022-12-25T00:53:17.775Z,4.77
2022-12-25T00:55:55.634Z,6.13
2022-12-25T00:58:31.866Z,4.93
2022-12-25T01:01:05.865Z,4.37
2022-12-25T01:03:39.661Z,7.80
2022-12-25T01:06:13.925Z,5.23
2022-12-25T01:09:02.653Z,4.90
2022-12-25T01:11:36.105Z,5.27
2022-12-25T01:14:10.598Z,5.17
2022-12-25T01:16:44.210Z,5.13
2022-12-25T01:19:17.933Z,5.83
2022-12-25T01:21:51.343Z,4.97
2022-12-25T01:24:26.153Z,4.30
2022-12-25T01:26:59.621Z,6.23
2022-12-25T01:29:33.127Z,4.13
2022-12-25T01:32:08.302Z,4.63
2022-12-25T01:34:41.891Z,3.47
2022-12-25T01:37:15.633Z,4.13
2022-12-25T01:39:50.594Z,4.63
2022-12-25T01:42:24.950Z,5.33
2022-12-25T01:45:39.762Z,4.93
2022-12-25T01:48:21.025Z,5.50
2022-12-25T01:51:01.124Z,4.57
2022-12-25T01:53:35.275Z,4.97
2022-12-25T01:56:10.925Z,6.33
2022-12-25T01:58:44.735Z,4.67
2022-12-25T02:01:18.810Z,5.60
2022-12-25T02:03:59.456Z,6.20
2022-12-25T02:06:36.545Z,6.13
2022-12-25T02:09:10.116Z,2.90
2022-12-25T02:12:00.473Z,6.50
2022-12-25T02:14:38.304Z,3.27
2022-12-25T02:17:25.184Z,8.90
2022-12-25T02:20:32.905Z,5.73
2022-12-25T02:23:40.185Z,2.97
2022-12-25T02:26:28.941Z,4.50
2022-12-25T02:29:11.594Z,4.67
2022-12-25T02:31:51.998Z,4.50
2022-12-25T02:34:36.721Z,3.97
2022-12-25T02:37:19.515Z,3.03
2022-12-25T02:40:03.441Z,3.70
2022-12-25T02:43:03.618Z,4.23
2022-12-25T02:46:26.930Z,3.03
2022-12-25T02:49:23.911Z,2.67
2022-12-25T02:52:22.170Z,3.90
2022-12-25T02:55:21.277Z,3.30
2022-12-25T02:58:16.974Z,3.30
2022-12-25T03:01:16.108Z,3.00
2022-12-25T03:04:13.951Z,3.17
2022-12-25T03:07:11.291Z,3.27
2022-12-25T03:10:08.558Z,3.07
2022-12-25T03:12:50.433Z,4.93
2022-12-25T03:15:42.638Z,3.93
2022-12-25T03:18:24.486Z,2.13
2022-12-25T03:21:17.702Z,3.10
2022-12-25T03:24:16.324Z,3.20
2022-12-25T03:26:56.290Z,5.20
2022-12-25T03:29:51.294Z,3.13
2022-12-25T03:32:40.130Z,4.50
2022-12-25T03:35:25.848Z,2.90
2022-12-25T03:38:36.969Z,2.73
2022-12-25T03:41:43.299Z,6.10
2022-12-25T03:44:47.014Z,2.53
2022-12-25T03:47:46.884Z,2.87
2022-12-25T03:50:44.312Z,3.23
2022-12-25T03:53:42.843Z,2.67
2022-12-25T03:56:37.371Z,4.20
2022-12-25T03:59:28.541Z,2.17
2022-12-25T04:02:20.214Z,2.30
2022-12-25T04:05:11.135Z,3.30
2022-12-25T04:08:18.165Z,2.60
2022-12-25T04:11:10.895Z,2.20
2022-12-25T04:14:01.540Z,3.13
2022-12-25T04:16:52.911Z,3.17
2022-12-25T04:19:43.905Z,2.37
2022-12-25T04:22:34.676Z,2.97
2022-12-25T04:25:26.660Z,3.73
2022-12-25T04:28:22.594Z,2.03
2022-12-25T04:31:13.677Z,2.93
2022-12-25T04:34:07.781Z,2.23
2022-12-25T04:36:41.601Z,2.93
2022-12-25T04:39:15.192Z,3.43
2022-12-25T04:41:51.547Z,3.00
2022-12-25T04:44:26.597Z,3.47
2022-12-25T04:47:01.141Z,3.77
2022-12-25T04:49:38.217Z,3.50
2022-12-25T04:52:11.690Z,3.67
2022-12-25T04:54:45.328Z,2.90
2022-12-25T04:57:18.869Z,3.83
2022-12-25T04:59:53.619Z,5.07
2022-12-25T05:02:27.339Z,2.37
2022-12-25T05:05:00.866Z,2.27
2022-12-25T05:07:34.909Z,1.77
2022-12-25T05:10:09.986Z,3.73
2022-12-25T05:12:43.600Z,2.43
2022-12-25T05:15:18.804Z,3.00
2022-12-25T05:17:52.522Z,2.37
2022-12-25T05:20:27.655Z,4.03
2022-12-25T05:23:01.227Z,3.43
2022-12-25T05:25:35.549Z,3.60
2022-12-25T05:28:12.341Z,2.17
2022-12-25T05:30:47.576Z,2.90
2022-12-25T05:33:20.951Z,2.57
2022-12-25T05:35:54.685Z,2.20
2022-12-25T05:38:28.357Z,3.27
2022-12-25T05:41:02.788Z,2.53
2022-12-25T05:43:36.494Z,3.63
2022-12-25T05:46:15.343Z,4.13
2022-12-25T05:48:48.925Z,4.73
2022-12-25T05:51:26.122Z,2.77
2022-12-25T05:53:59.935Z,2.80
2022-12-25T05:56:33.596Z,3.83
2022-12-25T05:59:08.068Z,2.43
2022-12-25T06:01:43.168Z,4.70
2022-12-25T06:04:16.892Z,3.57
2022-12-25T06:06:50.457Z,2.43
2022-12-25T06:09:26.049Z,2.43
2022-12-25T06:12:01.953Z,2.77
2022-12-25T06:14:35.769Z,3.97
2022-12-25T06:17:13.352Z,2.27
2022-12-25T06:19:46.780Z,6.30
2022-12-25T06:22:20.474Z,3.53
2022-12-25T06:24:54.165Z,3.10
2022-12-25T06:27:31.853Z,1.97
2022-12-25T06:30:07.645Z,3.53
2022-12-25T06:32:51.852Z,6.27
2022-12-25T06:35:25.279Z,2.77
2022-12-25T06:37:59.285Z,3.63
2022-12-25T06:40:32.807Z,2.60
2022-12-25T06:43:06.291Z,4.33
2022-12-25T06:45:39.757Z,3.23
2022-12-25T06:48:14.650Z,2.60
2022-12-25T06:50:48.419Z,2.30
2022-12-25T06:53:22.179Z,2.83
2022-12-25T06:55:55.837Z,3.73
2022-12-25T06:58:34.342Z,2.20
2022-12-25T07:01:15.716Z,2.77
2022-12-25T07:03:57.024Z,3.73
2022-12-25T07:06:31.118Z,3.27
2022-12-25T07:09:05.129Z,3.73
2022-12-25T07:11:39.037Z,3.60
2022-12-25T07:14:23.895Z,2.20
2022-12-25T07:16:59.054Z,3.43
2022-12-25T07:19:36.107Z,2.80
2022-12-25T07:22:13.748Z,3.43
2022-12-25T07:24:47.136Z,3.60
2022-12-25T07:27:22.229Z,4.77
2022-12-25T07:29:55.806Z,2.50
2022-12-25T07:32:32.314Z,2.83
2022-12-25T07:35:08.223Z,3.30
2022-12-25T07:37:45.116Z,4.93
2022-12-25T07:40:18.956Z,4.73
2022-12-25T07:42:52.963Z,3.23
2022-12-25T07:45:26.988Z,3.50
2022-12-25T07:48:05.134Z,2.40
2022-12-25T07:50:41.315Z,3.43
2022-12-25T07:53:14.848Z,3.17
2022-12-25T07:55:48.563Z,5.70
2022-12-25T07:58:23.586Z,4.33
2022-12-25T08:01:04.045Z,3.93
2022-12-25T08:03:38.518Z,5.37
2022-12-25T08:06:13.609Z,5.10
2022-12-25T08:08:47.429Z,4.83
2022-12-25T08:11:20.926Z,4.73
2022-12-25T08:13:54.508Z,4.27
2022-12-25T08:16:28.700Z,4.10
2022-12-25T08:19:02.732Z,3.77
2022-12-25T08:21:45.359Z,2.83
2022-12-25T08:24:19.245Z,5.73
2022-12-25T08:26:52.932Z,2.93
2022-12-25T08:29:29.078Z,5.90
2022-12-25T08:32:03.015Z,3.83
2022-12-25T08:34:38.373Z,4.30
2022-12-25T08:37:13.397Z,4.03
2022-12-25T08:39:47.462Z,2.83
2022-12-25T08:42:21.106Z,3.20
2022-12-25T08:44:54.932Z,4.97
2022-12-25T08:47:31.769Z,3.63
2022-12-25T08:50:06.992Z,3.90
2022-12-25T08:52:42.495Z,3.70
2022-12-25T08:55:16.286Z,4.93
2022-12-25T08:57:54.065Z,3.93
2022-12-25T09:00:27.778Z,3.90
2022-12-25T09:03:01.925Z,4.57
2022-12-25T09:05:37.083Z,2.97
2022-12-25T09:08:12.075Z,4.10
2022-12-25T09:10:45.611Z,3.07
2022-12-25T09:13:19.931Z,4.90
2022-12-25T09:15:53.471Z,2.57
2022-12-25T09:18:27.562Z,4.37
2022-12-25T09:21:02.339Z,3.83
2022-12-25T09:23:37.517Z,2.90
2022-12-25T09:26:15.128Z,3.63
2022-12-25T09:28:52.242Z,3.37
2022-12-25T09:31:26.157Z,3.17
2022-12-25T09:34:00.129Z,3.53
2022-12-25T09:36:34.171Z,4.13
2022-12-25T09:39:09.044Z,5.20
2022-12-25T09:41:56.722Z,3.50
2022-12-25T09:44:36.386Z,3.20
2022-12-25T09:47:15.727Z,3.50
2022-12-25T09:49:55.584Z,2.73
2022-12-25T09:52:45.237Z,5.00
2022-12-25T09:55:24.293Z,4.60
2022-12-25T09:58:01.765Z,3.07
2022-12-25T10:00:44.198Z,2.73
2022-12-25T10:03:38.090Z,3.33
2022-12-25T10:06:22.029Z,3.20
2022-12-25T10:09:22.409Z,3.13
2022-12-25T10:12:23.942Z,3.43
2022-12-25T10:15:15.629Z,2.37
2022-12-25T10:18:12.683Z,2.60
2022-12-25T10:20:53.402Z,3.03
2022-12-25T10:23:33.559Z,2.10
2022-12-25T10:26:17.149Z,3.47
2022-12-25T10:29:00.856Z,5.17
2022-12-25T10:31:38.275Z,2.27
2022-12-25T10:34:15.796Z,3.03
2022-12-25T10:36:50.174Z,4.33
2022-12-25T10:39:27.451Z,2.83
2022-12-25T10:42:31.990Z,3.63
2022-12-25T10:45:10.721Z,3.23
2022-12-25T10:47:45.635Z,3.10
2022-12-25T10:50:25.873Z,3.00
2022-12-25T10:53:05.264Z,2.17
2022-12-25T10:55:39.036Z,3.37
2022-12-25T10:58:21.361Z,2.20
2022-12-25T11:01:05.191Z,2.90
2022-12-25T11:03:47.050Z,2.43
2022-12-25T11:06:26.066Z,2.47
2022-12-25T11:09:03.795Z,3.13
2022-12-25T11:11:38.346Z,2.17
2022-12-25T11:14:25.544Z,2.77
2022-12-25T11:17:16.760Z,2.27
2022-12-25T11:19:55.388Z,1.93
2022-12-25T11:22:29.920Z,2.93
2022-12-25T11:25:14.568Z,2.47
2022-12-25T11:28:00.170Z,2.77
2022-12-25T11:30:36.063Z,2.60
2022-12-25T11:33:16.781Z,2.07
2022-12-25T11:35:54.835Z,1.30
2022-12-25T11:38:28.617Z,1.73
2022-12-25T11:41:06.157Z,2.17
2022-12-25T11:43:48.182Z,1.40
2022-12-25T11:46:29.597Z,2.33
2022-12-25T11:49:15.800Z,2.07
2022-12-25T11:51:54.721Z,2.70
2022-12-25T11:54:41.977Z,1.27
2022-12-25T11:57:15.788Z,1.20
2022-12-25T11:59:58.105Z,1.57
2022-12-25T12:02:43.940Z,1.57
2022-12-25T12:05:27.137Z,2.47
2022-12-25T12:08:03.728Z,2.33
2022-12-25T12:11:15.766Z,1.67
2022-12-25T12:14:17.917Z,3.80
2022-12-25T12:16:53.865Z,4.87
2022-12-25T12:19:31.922Z,4.43
2022-12-25T12:22:07.872Z,5.63
2022-12-25T12:24:45.668Z,4.33
2022-12-25T12:27:27.918Z,4.97
2022-12-25T12:30:01.908Z,4.47
2022-12-25T12:32:44.243Z,4.20
2022-12-25T12:35:21.757Z,3.23
2022-12-25T12:38:01.840Z,5.77
2022-12-25T12:40:39.157Z,6.40
2022-12-25T12:43:37.968Z,4.90
2022-12-25T12:46:26.082Z,5.50
2022-12-25T12:49:18.596Z,4.53
2022-12-25T12:52:03.814Z,5.17
2022-12-25T12:55:00.485Z,5.87
2022-12-25T12:57:39.815Z,3.50
2022-12-25T13:00:21.198Z,3.40
2022-12-25T13:03:43.984Z,3.07
2022-12-25T13:06:27.130Z,2.60
2022-12-25T13:09:21.477Z,2.07
2022-12-25T13:11:56.452Z,2.80
2022-12-25T13:14:29.974Z,3.33
2022-12-25T13:17:07.599Z,3.20
2022-12-25T13:19:45.732Z,3.00
2022-12-25T13:22:29.916Z,3.30
2022-12-25T13:25:09.110Z,3.60
2022-12-25T13:27:44.375Z,4.67
2022-12-25T13:30:22.155Z,4.77
2022-12-25T13:32:56.990Z,4.67
2022-12-25T13:35:31.696Z,3.30
2022-12-25T13:38:11.437Z,3.60
2022-12-25T13:41:07.610Z,3.87
2022-12-25T13:43:46.301Z,3.17
2022-12-25T13:46:27.849Z,3.63
2022-12-25T13:49:02.715Z,3.27
2022-12-25T13:51:36.513Z,4.50
2022-12-25T13:54:14.136Z,3.80
2022-12-25T13:56:51.788Z,3.30
2022-12-25T13:59:27.458Z,3.90
2022-12-25T14:02:01.348Z,2.90
2022-12-25T14:04:45.704Z,3.40
2022-12-25T14:07:26.422Z,3.80
2022-12-25T14:10:03.667Z,3.53
2022-12-25T14:12:37.260Z,3.30
2022-12-25T14:15:22.236Z,3.83
2022-12-25T14:17:56.236Z,3.80
2022-12-25T14:20:35.687Z,4.23
2022-12-25T14:23:16.842Z,4.63
2022-12-25T14:25:50.452Z,2.97
2022-12-25T14:28:34.615Z,3.90
2022-12-25T14:31:14.148Z,4.43
2022-12-25T14:33:50.497Z,4.30
2022-12-25T14:36:24.199Z,4.30
2022-12-25T14:39:01.517Z,3.80
2022-12-25T14:41:39.534Z,4.47
2022-12-25T14:44:33.943Z,4.67
2022-12-25T14:47:22.236Z,4.20
2022-12-25T14:49:57.006Z,4.47
2022-12-25T14:52:40.109Z,4.03
2022-12-25T14:55:23.206Z,4.23
2022-12-25T14:58:01.069Z,4.70
2022-12-25T15:00:40.886Z,4.03
2022-12-25T15:03:27.893Z,3.73
2022-12-25T15:06:03.927Z,4.33
2022-12-25T15:08:37.926Z,3.10
2022-12-25T15:11:11.471Z,3.83
2022-12-25T15:13:46.849Z,4.00
2022-12-25T15:16:24.710Z,3.33
2022-12-25T15:19:01.595Z,4.13
2022-12-25T15:21:38.628Z,4.17
2022-12-25T15:24:14.513Z,4.13
2022-12-25T15:26:48.177Z,4.43
2022-12-25T15:29:52.058Z,5.33
2022-12-25T15:32:24.113Z,5.73
2022-12-25T15:35:01.475Z,4.27
2022-12-25T15:37:42.130Z,4.27
2022-12-25T15:40:17.704Z,5.77
2022-12-25T15:42:56.640Z,5.50
2022-12-25T15:45:38.751Z,4.80
2022-12-25T15:48:12.954Z,5.60
2022-12-25T15:50:49.547Z,4.53
2022-12-25T15:53:23.860Z,4.67
2022-12-25T15:55:59.647Z,4.80
2022-12-25T15:58:33.416Z,3.87
2022-12-25T16:01:09.122Z,3.97
2022-12-25T16:03:43.137Z,5.47
2022-12-25T16:06:20.706Z,5.10
2022-12-25T16:08:55.532Z,4.73
2022-12-25T16:11:29.660Z,4.83
2022-12-25T16:14:03.809Z,4.67
2022-12-25T16:16:38.325Z,5.13
2022-12-25T16:19:12.230Z,3.40
2022-12-25T16:21:48.653Z,5.40
2022-12-25T16:24:28.904Z,5.03
2022-12-25T16:27:08.683Z,5.10
2022-12-25T16:29:43.444Z,5.40
2022-12-25T16:32:21.322Z,4.33
2022-12-25T16:35:20.231Z,5.10
2022-12-25T16:37:59.208Z,4.30
2022-12-25T16:40:33.587Z,4.63
2022-12-25T16:43:07.644Z,5.47
2022-12-25T16:45:48.407Z,5.97
2022-12-25T16:48:22.439Z,3.97
2022-12-25T16:50:56.158Z,5.87
2022-12-25T16:53:31.932Z,5.73
2022-12-25T16:56:10.624Z,4.60
2022-12-25T16:58:47.041Z,4.27
2022-12-25T17:01:25.814Z,4.97
2022-12-25T17:04:02.599Z,5.20
2022-12-25T17:06:39.835Z,6.07
2022-12-25T17:09:17.327Z,5.20
2022-12-25T17:11:51.455Z,3.30
2022-12-25T17:14:26.403Z,2.97
2022-12-25T17:17:00.620Z,4.80
2022-12-25T17:19:38.124Z,4.60
2022-12-25T17:22:12.345Z,4.80
2022-12-25T17:24:48.975Z,4.63
2022-12-25T17:27:24.272Z,5.37
2022-12-25T17:29:58.291Z,3.50
2022-12-25T17:32:32.150Z,4.03
2022-12-25T17:35:09.541Z,4.83
2022-12-25T17:37:45.003Z,7.23
2022-12-25T17:40:20.697Z,4.13
2022-12-25T17:42:54.322Z,4.83
2022-12-25T17:45:28.183Z,3.73
2022-12-25T17:48:01.809Z,4.33
2022-12-25T17:50:41.054Z,4.27
2022-12-25T17:53:17.318Z,4.47
2022-12-25T17:55:52.449Z,3.67
2022-12-25T17:58:26.975Z,4.50
2022-12-25T18:01:08.544Z,3.97
2022-12-25T18:03:45.347Z,4.70
2022-12-25T18:06:22.135Z,4.47
2022-12-25T18:08:59.713Z,4.07
2022-12-25T18:11:36.739Z,5.67
2022-12-25T18:14:15.986Z,6.23
2022-12-25T18:16:51.927Z,5.27
2022-12-25T18:19:27.412Z,4.37
2022-12-25T18:22:03.758Z,4.70
2022-12-25T18:24:40.215Z,4.53
2022-12-25T18:27:22.129Z,5.70
2022-12-25T18:29:56.895Z,4.80
2022-12-25T18:32:43.176Z,5.33
2022-12-25T18:35:19.069Z,4.17
2022-12-25T18:37:53.467Z,5.87
2022-12-25T18:40:29.417Z,5.53
2022-12-25T18:43:17.458Z,5.17
2022-12-25T18:45:59.277Z,3.70
2022-12-25T18:48:38.214Z,4.43
2022-12-25T18:51:15.363Z,5.07
2022-12-25T18:54:19.665Z,3.90
2022-12-25T18:56:53.522Z,4.93
2022-12-25T18:59:31.909Z,3.83
2022-12-25T19:02:06.801Z,4.13
2022-12-25T19:04:44.522Z,5.23
2022-12-25T19:07:18.431Z,6.07
2022-12-25T19:09:57.181Z,6.97
2022-12-25T19:12:31.122Z,5.00
2022-12-25T19:15:08.607Z,6.53
2022-12-25T19:17:42.242Z,6.27
2022-12-25T19:20:15.943Z,8.00
2022-12-25T19:22:49.848Z,5.20
2022-12-25T19:25:23.570Z,4.63
2022-12-25T19:27:57.382Z,4.67
2022-12-25T19:30:32.379Z,5.47
2022-12-25T19:33:07.413Z,5.00
2022-12-25T19:35:43.700Z,5.10
2022-12-25T19:38:17.801Z,5.13
2022-12-25T19:41:01.689Z,4.33
2022-12-25T19:43:39.235Z,4.23
2022-12-25T19:46:20.019Z,4.07
2022-12-25T19:48:54.755Z,5.57
2022-12-25T19:51:30.715Z,4.63
2022-12-25T19:54:06.385Z,3.87
2022-12-25T19:56:40.146Z,5.90
2022-12-25T19:59:14.612Z,3.80
2022-12-25T20:01:49.956Z,5.47
2022-12-25T20:04:24.004Z,5.40
2022-12-25T20:06:57.893Z,4.43
2022-12-25T20:09:32.770Z,4.30
2022-12-25T20:12:08.818Z,5.47
2022-12-25T20:14:42.214Z,5.23
2022-12-25T20:17:17.504Z,6.43
2022-12-25T20:19:52.695Z,6.53
2022-12-25T20:22:26.715Z,5.87
2022-12-25T20:25:03.283Z,6.10
2022-12-25T20:27:37.188Z,5.50
2022-12-25T20:30:12.229Z,5.50
2022-12-25T20:32:50.623Z,5.43
2022-12-25T20:35:24.639Z,6.40
2022-12-25T20:38:00.408Z,4.43
2022-12-25T20:40:53.048Z,4.13
2022-12-25T20:43:28.027Z,4.83
2022-12-25T20:46:02.647Z,4.27
2022-12-25T20:48:38.313Z,4.57
2022-12-25T20:51:15.969Z,3.90
2022-12-25T20:53:50.564Z,5.47
2022-12-25T20:56:29.089Z,5.17
2022-12-25T20:59:03.732Z,4.90
2022-12-25T21:01:37.420Z,4.50
2022-12-25T21:04:16.490Z,6.27
2022-12-25T21:06:50.254Z,5.20
2022-12-25T21:09:23.853Z,4.27
2022-12-25T21:11:57.643Z,4.30
2022-12-25T21:14:31.190Z,5.47
2022-12-25T21:17:05.077Z,4.30
2022-12-25T21:19:40.092Z,5.80
2022-12-25T21:22:14.509Z,5.27
2022-12-25T21:24:52.104Z,4.37
2022-12-25T21:27:26.228Z,5.80
2022-12-25T21:29:59.831Z,5.27
2022-12-25T21:33:07.013Z,5.67
2022-12-25T21:35:42.852Z,4.80
2022-12-25T21:38:17.452Z,5.43
2022-12-25T21:40:50.881Z,5.67
2022-12-25T21:43:24.455Z,5.53
2022-12-25T21:46:01.798Z,4.77
2022-12-25T21:48:38.367Z,5.50
2022-12-25T21:51:37.961Z,6.00
2022-12-25T21:54:13.433Z,4.87
2022-12-25T21:56:48.791Z,4.97
2022-12-25T21:59:26.050Z,6.17
2022-12-25T22:02:00.781Z,4.50
2022-12-25T22:04:37.943Z,4.37
2022-12-25T22:07:20.151Z,5.97
2022-12-25T22:09:56.724Z,5.33
2022-12-25T22:12:53.309Z,3.60
2022-12-25T22:15:44.532Z,4.10
2022-12-25T22:18:35.480Z,3.70
2022-12-25T22:21:09.133Z,3.73
2022-12-25T22:23:45.256Z,3.73
2022-12-25T22:26:21.189Z,4.57
2022-12-25T22:28:55.253Z,3.87
2022-12-25T22:31:28.889Z,3.37
2022-12-25T22:34:02.500Z,4.80
2022-12-25T22:36:36.109Z,3.50
2022-12-25T22:39:11.144Z,3.30
2022-12-25T22:41:45.961Z,2.93
2022-12-25T22:44:24.329Z,2.13
2022-12-25T22:46:58.572Z,2.63
2022-12-25T22:49:32.288Z,2.77
2022-12-25T22:52:08.234Z,3.50
2022-12-25T22:54:43.224Z,2.40
2022-12-25T22:57:17.073Z,3.60
2022-12-25T22:59:53.114Z,2.00
2022-12-25T23:02:27.319Z,2.80
2022-12-25T23:05:00.958Z,2.47
2022-12-25T23:07:34.374Z,1.97
2022-12-25T23:10:11.893Z,2.33
2022-12-25T23:13:03.446Z,2.00
2022-12-25T23:15:40.799Z,2.40
2022-12-25T23:18:31.890Z,3.00
2022-12-25T23:21:23.546Z,2.70
2022-12-25T23:24:14.820Z,2.53
2022-12-25T23:26:49.620Z,1.50
2022-12-25T23:29:37.136Z,1.30
2022-12-25T23:32:14.319Z,1.33
2022-12-25T23:34:47.696Z,2.47
2022-12-25T23:37:22.186Z,2.10
2022-12-25T23:39:55.823Z,1.47
2022-12-25T23:42:30.686Z,1.80
2022-12-25T23:45:04.556Z,1.87
2022-12-25T23:47:39.145Z,2.43
2022-12-25T23:50:12.810Z,2.20
2022-12-25T23:52:46.556Z,2.77
2022-12-25T23:55:23.376Z,2.67
2022-12-25T23:57:58.673Z,1.97
